Main page
METAR-TAF:

METAR-TAF

Airports :

Campbeltown Airport

Campbeltown, Scotland

latitude: 55-26-14N, longitude: 005-41-11W, elevation: 13 m

Current weather observation

The report was made 25 minutes ago, at 13:20 UTC
Wind 5 kt from the West/Northwest, varying between West/Southwest and North/Northwest
Temperature 15°C
Humidity 72%
Pressure 1023 hPa
Visibility 10 km or more
no clouds below 1500 m and no cumulonimbus

METAR: EGEC 241320Z 29005KT 250V330 CAVOK 15/10 Q1023

Time: 14:45 (13:45 UTC)

Forecast

The report was made 2 hours and 41 minutes ago, at 11:04 UTC
Forecast valid from 24 at 12 UTC to 24 at 17 UTC
Wind 11 kt from the East/Southeast
Visibility 10 km or more
Few clouds at a height of 4500 ft
Becoming
from 24 at 12 UTC to 24 at 15 UTC
Wind 5 kt from the Northeast

TAF: EGEC 241104Z 2412/2417 11011KT 9999 FEW045 BECMG 2412/2415 05005KT

Weather observations and forecasts of more than 4000 airports (METAR and TAF reports).

The available stations are represented by yellow and red dots on the map.

Hover mouse over dot to see the name of the station.

Then click to see weather observations and forecasts.

To change the map : click on the green buttons with a black cross to zoom in, on the green button with a dash to zoom out, or on the green arrows for adjacent maps.


METAR-TAF: